aviador You're here:

PACZ Decoded Metar

CAPE ROMANZOF in AK, USA
Report Time2017-07-26 06:20:00
UTC Time2017-07-26 06:34:35
Flight Rules lifr LIFR
Wind350° at 18 kt
W.Decomp.*RWY 02: 13.2 kt HW 12.3 kt LCW
W.Rank350° ranks 23
Current wind is above 350° avg. (14.8)
Visibility9999 m
Phenomena:N/A
Clouds:Broken 003 Hf
Broken 110 Hf
Expected CloudBase > 400 ft AGL from Temp-Dew spread
Ceiling300 ft
Temp10°C (ISA -4)
Dew Point09°C (94% RH)
AAT3.3°C
QNH1014 hPa
Density Alt118 ft
Elevation479 ft
Report Wrong Elevation
Raw Report
PACZ 260620Z AUTO 35018KT 220V020 10SM BKN003 BKN110 10/09 A2994=

Extra information for PACZ:More info

Metar Taf Metar & Taf Last 4 Metars F.Rules Stats Wind Profile Meteogram Temp Stats Airport Information Weather charts Add Link Nearby VenuesMetar ALERT Operation Metar Decoded Social comments

AIRNAV info for PACZ